sensor_id;sensor_type;location;lat;lon;timestamp;P1;durP1;ratioP1;P2;durP2;ratioP2
64011;SDS011;50211;52.768;12.124;2023-07-30T00:01:10;3.05;;;2.40;;
64011;SDS011;50211;52.768;12.124;2023-07-30T00:03:35;3.58;;;2.70;;
64011;SDS011;50211;52.768;12.124;2023-07-30T00:06:00;3.00;;;2.50;;
64011;SDS011;50211;52.768;12.124;2023-07-30T00:08:26;3.45;;;2.58;;
64011;SDS011;50211;52.768;12.124;2023-07-30T00:10:51;4.45;;;3.28;;
64011;SDS011;50211;52.768;12.124;2023-07-30T00:13:17;3.90;;;2.65;;
64011;SDS011;50211;52.768;12.124;2023-07-30T00:15:42;3.80;;;3.10;;
64011;SDS011;50211;52.768;12.124;2023-07-30T00:18:10;6.18;;;2.97;;
64011;SDS011;50211;52.768;12.124;2023-07-30T00:20:36;4.68;;;3.20;;
64011;SDS011;50211;52.768;12.124;2023-07-30T00:23:01;3.35;;;2.58;;
64011;SDS011;50211;52.768;12.124;2023-07-30T00:25:27;4.32;;;2.85;;
64011;SDS011;50211;52.768;12.124;2023-07-30T00:27:52;5.22;;;3.35;;
64011;SDS011;50211;52.768;12.124;2023-07-30T00:30:18;4.35;;;3.17;;
64011;SDS011;50211;52.768;12.124;2023-07-30T00:32:43;5.10;;;3.28;;
64011;SDS011;50211;52.768;12.124;2023-07-30T00:35:09;5.75;;;2.88;;
64011;SDS011;50211;52.768;12.124;2023-07-30T00:37:35;3.13;;;2.75;;
64011;SDS011;50211;52.768;12.124;2023-07-30T00:40:04;3.42;;;2.58;;
64011;SDS011;50211;52.768;12.124;2023-07-30T00:42:30;3.17;;;2.83;;
64011;SDS011;50211;52.768;12.124;2023-07-30T00:44:55;4.20;;;3.00;;
64011;SDS011;50211;52.768;12.124;2023-07-30T00:47:21;4.10;;;2.90;;
64011;SDS011;50211;52.768;12.124;2023-07-30T00:49:47;5.75;;;2.70;;
64011;SDS011;50211;52.768;12.124;2023-07-30T00:52:14;6.22;;;3.40;;
64011;SDS011;50211;52.768;12.124;2023-07-30T00:54:41;5.25;;;3.17;;
64011;SDS011;50211;52.768;12.124;2023-07-30T00:57:07;3.45;;;3.15;;
64011;SDS011;50211;52.768;12.124;2023-07-30T00:59:33;4.53;;;3.15;;
64011;SDS011;50211;52.768;12.124;2023-07-30T01:01:59;2.72;;;2.17;;
64011;SDS011;50211;52.768;12.124;2023-07-30T01:04:25;3.00;;;2.70;;
64011;SDS011;50211;52.768;12.124;2023-07-30T01:06:52;5.53;;;3.33;;
64011;SDS011;50211;52.768;12.124;2023-07-30T01:09:17;4.65;;;2.72;;
64011;SDS011;50211;52.768;12.124;2023-07-30T01:11:43;4.13;;;3.03;;
64011;SDS011;50211;52.768;12.124;2023-07-30T01:14:09;3.38;;;3.03;;
64011;SDS011;50211;52.768;12.124;2023-07-30T01:16:35;5.15;;;2.85;;
64011;SDS011;50211;52.768;12.124;2023-07-30T01:19:01;3.67;;;3.10;;
64011;SDS011;50211;52.768;12.124;2023-07-30T01:21:31;6.85;;;3.17;;
64011;SDS011;50211;52.768;12.124;2023-07-30T01:23:59;3.65;;;2.42;;
64011;SDS011;50211;52.768;12.124;2023-07-30T01:26:27;5.55;;;2.92;;
64011;SDS011;50211;52.768;12.124;2023-07-30T01:28:59;3.80;;;3.10;;
64011;SDS011;50211;52.768;12.124;2023-07-30T01:31:26;3.75;;;3.22;;
64011;SDS011;50211;52.768;12.124;2023-07-30T01:33:55;3.85;;;2.78;;
64011;SDS011;50211;52.768;12.124;2023-07-30T01:36:21;5.25;;;3.33;;
64011;SDS011;50211;52.768;12.124;2023-07-30T01:38:47;3.70;;;2.83;;
64011;SDS011;50211;52.768;12.124;2023-07-30T01:41:15;4.40;;;3.30;;
64011;SDS011;50211;52.768;12.124;2023-07-30T01:43:40;4.05;;;3.28;;
64011;SDS011;50211;52.768;12.124;2023-07-30T01:46:06;5.47;;;3.17;;
64011;SDS011;50211;52.768;12.124;2023-07-30T01:48:31;4.72;;;3.20;;
64011;SDS011;50211;52.768;12.124;2023-07-30T01:50:57;3.58;;;3.28;;
64011;SDS011;50211;52.768;12.124;2023-07-30T01:53:22;6.43;;;3.35;;
64011;SDS011;50211;52.768;12.124;2023-07-30T01:55:48;4.82;;;3.80;;
64011;SDS011;50211;52.768;12.124;2023-07-30T01:58:13;4.13;;;3.40;;
64011;SDS011;50211;52.768;12.124;2023-07-30T02:00:39;4.40;;;2.75;;
64011;SDS011;50211;52.768;12.124;2023-07-30T02:03:05;3.60;;;3.30;;
64011;SDS011;50211;52.768;12.124;2023-07-30T02:05:31;4.85;;;2.92;;
64011;SDS011;50211;52.768;12.124;2023-07-30T02:07:57;4.57;;;3.13;;
64011;SDS011;50211;52.768;12.124;2023-07-30T02:10:24;3.88;;;3.15;;
64011;SDS011;50211;52.768;12.124;2023-07-30T02:12:49;3.95;;;3.55;;
64011;SDS011;50211;52.768;12.124;2023-07-30T02:15:15;3.67;;;3.30;;
64011;SDS011;50211;52.768;12.124;2023-07-30T02:17:40;4.90;;;3.85;;
64011;SDS011;50211;52.768;12.124;2023-07-30T02:20:06;6.72;;;3.45;;
64011;SDS011;50211;52.768;12.124;2023-07-30T02:22:32;4.60;;;3.80;;
64011;SDS011;50211;52.768;12.124;2023-07-30T02:24:58;4.70;;;3.75;;
64011;SDS011;50211;52.768;12.124;2023-07-30T02:27:23;5.43;;;3.75;;
64011;SDS011;50211;52.768;12.124;2023-07-30T02:29:49;9.82;;;4.35;;
64011;SDS011;50211;52.768;12.124;2023-07-30T02:32:16;7.22;;;3.78;;
64011;SDS011;50211;52.768;12.124;2023-07-30T02:34:41;5.10;;;3.22;;
64011;SDS011;50211;52.768;12.124;2023-07-30T02:37:07;4.15;;;3.75;;
64011;SDS011;50211;52.768;12.124;2023-07-30T02:39:32;4.65;;;3.55;;
64011;SDS011;50211;52.768;12.124;2023-07-30T02:41:58;18.42;;;4.07;;
64011;SDS011;50211;52.768;12.124;2023-07-30T02:44:23;4.45;;;3.67;;
64011;SDS011;50211;52.768;12.124;2023-07-30T02:46:49;5.35;;;3.53;;
64011;SDS011;50211;52.768;12.124;2023-07-30T02:49:14;5.30;;;3.17;;
64011;SDS011;50211;52.768;12.124;2023-07-30T02:51:40;4.95;;;3.20;;
64011;SDS011;50211;52.768;12.124;2023-07-30T02:54:08;4.15;;;3.35;;
64011;SDS011;50211;52.768;12.124;2023-07-30T02:56:34;8.80;;;3.60;;
64011;SDS011;50211;52.768;12.124;2023-07-30T02:59:01;4.50;;;4.05;;
64011;SDS011;50211;52.768;12.124;2023-07-30T03:01:26;4.05;;;3.58;;
64011;SDS011;50211;52.768;12.124;2023-07-30T03:03:52;4.43;;;3.72;;
64011;SDS011;50211;52.768;12.124;2023-07-30T03:06:17;4.45;;;3.80;;
64011;SDS011;50211;52.768;12.124;2023-07-30T03:08:43;4.47;;;3.20;;
64011;SDS011;50211;52.768;12.124;2023-07-30T03:11:09;4.38;;;3.85;;
64011;SDS011;50211;52.768;12.124;2023-07-30T03:13:34;6.38;;;4.05;;
64011;SDS011;50211;52.768;12.124;2023-07-30T03:16:00;5.88;;;3.85;;
64011;SDS011;50211;52.768;12.124;2023-07-30T03:18:25;3.83;;;3.40;;
64011;SDS011;50211;52.768;12.124;2023-07-30T03:20:51;6.22;;;3.70;;
64011;SDS011;50211;52.768;12.124;2023-07-30T03:23:16;7.15;;;4.10;;
64011;SDS011;50211;52.768;12.124;2023-07-30T03:25:42;5.32;;;3.95;;
64011;SDS011;50211;52.768;12.124;2023-07-30T03:28:07;4.93;;;3.92;;
64011;SDS011;50211;52.768;12.124;2023-07-30T03:30:32;6.00;;;3.70;;
64011;SDS011;50211;52.768;12.124;2023-07-30T03:32:58;5.82;;;3.58;;
64011;SDS011;50211;52.768;12.124;2023-07-30T03:35:23;8.27;;;3.85;;
64011;SDS011;50211;52.768;12.124;2023-07-30T03:37:49;3.90;;;3.50;;
64011;SDS011;50211;52.768;12.124;2023-07-30T03:40:14;7.22;;;4.20;;
64011;SDS011;50211;52.768;12.124;2023-07-30T03:42:40;4.25;;;3.65;;
64011;SDS011;50211;52.768;12.124;2023-07-30T03:45:05;5.45;;;4.05;;
64011;SDS011;50211;52.768;12.124;2023-07-30T03:47:31;5.20;;;3.70;;
64011;SDS011;50211;52.768;12.124;2023-07-30T03:49:57;6.38;;;3.95;;
64011;SDS011;50211;52.768;12.124;2023-07-30T03:52:22;4.88;;;3.67;;
64011;SDS011;50211;52.768;12.124;2023-07-30T03:54:48;4.20;;;3.75;;
64011;SDS011;50211;52.768;12.124;2023-07-30T03:57:13;4.03;;;3.63;;
64011;SDS011;50211;52.768;12.124;2023-07-30T03:59:39;6.90;;;3.83;;
64011;SDS011;50211;52.768;12.124;2023-07-30T04:02:04;4.53;;;3.70;;
64011;SDS011;50211;52.768;12.124;2023-07-30T04:04:30;6.22;;;3.80;;
64011;SDS011;50211;52.768;12.124;2023-07-30T04:06:55;11.18;;;3.85;;
64011;SDS011;50211;52.768;12.124;2023-07-30T04:09:21;9.43;;;4.00;;
64011;SDS011;50211;52.768;12.124;2023-07-30T04:11:46;4.53;;;3.70;;
64011;SDS011;50211;52.768;12.124;2023-07-30T04:14:12;3.47;;;3.15;;
64011;SDS011;50211;52.768;12.124;2023-07-30T04:16:37;4.30;;;3.40;;
64011;SDS011;50211;52.768;12.124;2023-07-30T04:19:02;3.80;;;3.20;;
64011;SDS011;50211;52.768;12.124;2023-07-30T04:21:28;7.78;;;3.78;;
64011;SDS011;50211;52.768;12.124;2023-07-30T04:23:53;5.00;;;3.58;;
64011;SDS011;50211;52.768;12.124;2023-07-30T04:26:19;7.07;;;3.17;;
64011;SDS011;50211;52.768;12.124;2023-07-30T04:28:44;6.00;;;3.50;;
64011;SDS011;50211;52.768;12.124;2023-07-30T04:31:10;3.30;;;3.00;;
64011;SDS011;50211;52.768;12.124;2023-07-30T04:33:35;4.55;;;2.90;;
64011;SDS011;50211;52.768;12.124;2023-07-30T04:36:01;5.95;;;3.25;;
64011;SDS011;50211;52.768;12.124;2023-07-30T04:38:27;3.78;;;2.88;;
64011;SDS011;50211;52.768;12.124;2023-07-30T04:40:53;3.90;;;2.70;;
64011;SDS011;50211;52.768;12.124;2023-07-30T04:43:19;3.40;;;3.10;;
64011;SDS011;50211;52.768;12.124;2023-07-30T04:45:44;4.90;;;2.58;;
64011;SDS011;50211;52.768;12.124;2023-07-30T04:48:11;3.95;;;3.03;;
64011;SDS011;50211;52.768;12.124;2023-07-30T04:50:36;3.22;;;2.70;;
64011;SDS011;50211;52.768;12.124;2023-07-30T04:53:04;4.50;;;2.67;;
64011;SDS011;50211;52.768;12.124;2023-07-30T04:55:29;4.85;;;3.08;;
64011;SDS011;50211;52.768;12.124;2023-07-30T04:57:55;4.15;;;2.63;;
64011;SDS011;50211;52.768;12.124;2023-07-30T05:00:20;4.97;;;3.00;;
64011;SDS011;50211;52.768;12.124;2023-07-30T05:02:46;4.32;;;3.13;;
64011;SDS011;50211;52.768;12.124;2023-07-30T05:05:11;5.57;;;3.17;;
64011;SDS011;50211;52.768;12.124;2023-07-30T05:07:37;4.13;;;3.20;;
64011;SDS011;50211;52.768;12.124;2023-07-30T05:10:03;3.85;;;2.83;;
64011;SDS011;50211;52.768;12.124;2023-07-30T05:12:31;3.50;;;3.20;;
64011;SDS011;50211;52.768;12.124;2023-07-30T05:14:57;5.60;;;2.97;;
64011;SDS011;50211;52.768;12.124;2023-07-30T05:17:22;4.13;;;2.78;;
64011;SDS011;50211;52.768;12.124;2023-07-30T05:19:48;3.15;;;2.72;;
64011;SDS011;50211;52.768;12.124;2023-07-30T05:22:13;3.80;;;3.05;;
64011;SDS011;50211;52.768;12.124;2023-07-30T05:24:39;4.00;;;2.75;;
64011;SDS011;50211;52.768;12.124;2023-07-30T05:27:04;5.95;;;3.05;;
64011;SDS011;50211;52.768;12.124;2023-07-30T05:29:30;4.97;;;2.90;;
64011;SDS011;50211;52.768;12.124;2023-07-30T05:31:55;14.32;;;2.50;;
64011;SDS011;50211;52.768;12.124;2023-07-30T05:34:21;4.00;;;2.70;;
64011;SDS011;50211;52.768;12.124;2023-07-30T05:36:46;8.40;;;2.65;;
64011;SDS011;50211;52.768;12.124;2023-07-30T05:39:12;4.20;;;2.70;;
64011;SDS011;50211;52.768;12.124;2023-07-30T05:41:37;3.08;;;2.35;;
64011;SDS011;50211;52.768;12.124;2023-07-30T05:44:03;2.97;;;2.40;;
64011;SDS011;50211;52.768;12.124;2023-07-30T05:46:28;3.92;;;2.67;;
64011;SDS011;50211;52.768;12.124;2023-07-30T05:48:54;3.83;;;3.08;;
64011;SDS011;50211;52.768;12.124;2023-07-30T05:51:19;8.50;;;2.55;;
64011;SDS011;50211;52.768;12.124;2023-07-30T05:53:45;5.53;;;2.28;;
64011;SDS011;50211;52.768;12.124;2023-07-30T05:56:10;4.13;;;2.72;;
64011;SDS011;50211;52.768;12.124;2023-07-30T05:58:38;4.20;;;2.60;;
64011;SDS011;50211;52.768;12.124;2023-07-30T06:01:03;4.35;;;2.72;;
64011;SDS011;50211;52.768;12.124;2023-07-30T06:03:29;7.10;;;2.92;;
64011;SDS011;50211;52.768;12.124;2023-07-30T06:05:54;6.22;;;2.50;;
64011;SDS011;50211;52.768;12.124;2023-07-30T06:08:20;7.22;;;2.63;;
64011;SDS011;50211;52.768;12.124;2023-07-30T06:10:45;8.20;;;3.22;;
64011;SDS011;50211;52.768;12.124;2023-07-30T06:13:12;3.60;;;2.60;;
64011;SDS011;50211;52.768;12.124;2023-07-30T06:15:37;10.77;;;2.53;;
64011;SDS011;50211;52.768;12.124;2023-07-30T06:18:03;4.35;;;2.95;;
64011;SDS011;50211;52.768;12.124;2023-07-30T06:20:29;3.83;;;2.40;;
64011;SDS011;50211;52.768;12.124;2023-07-30T06:22:55;2.83;;;2.30;;
64011;SDS011;50211;52.768;12.124;2023-07-30T06:25:20;3.97;;;2.30;;
64011;SDS011;50211;52.768;12.124;2023-07-30T06:27:46;9.02;;;2.67;;
64011;SDS011;50211;52.768;12.124;2023-07-30T06:30:12;4.57;;;2.40;;
64011;SDS011;50211;52.768;12.124;2023-07-30T06:32:37;3.58;;;2.35;;
64011;SDS011;50211;52.768;12.124;2023-07-30T06:35:03;3.08;;;2.25;;
64011;SDS011;50211;52.768;12.124;2023-07-30T06:37:28;4.35;;;2.47;;
64011;SDS011;50211;52.768;12.124;2023-07-30T06:39:54;3.28;;;2.28;;
64011;SDS011;50211;52.768;12.124;2023-07-30T06:42:19;6.57;;;2.42;;
64011;SDS011;50211;52.768;12.124;2023-07-30T06:44:45;8.18;;;2.28;;
64011;SDS011;50211;52.768;12.124;2023-07-30T06:47:10;3.50;;;1.90;;
64011;SDS011;50211;52.768;12.124;2023-07-30T06:49:36;5.28;;;2.42;;
64011;SDS011;50211;52.768;12.124;2023-07-30T06:52:02;11.68;;;3.13;;
64011;SDS011;50211;52.768;12.124;2023-07-30T06:54:29;9.05;;;2.42;;
64011;SDS011;50211;52.768;12.124;2023-07-30T06:56:54;3.67;;;2.05;;
64011;SDS011;50211;52.768;12.124;2023-07-30T06:59:20;6.57;;;2.55;;
64011;SDS011;50211;52.768;12.124;2023-07-30T07:01:45;3.03;;;2.35;;
64011;SDS011;50211;52.768;12.124;2023-07-30T07:04:11;3.80;;;2.20;;
64011;SDS011;50211;52.768;12.124;2023-07-30T07:06:36;4.65;;;2.00;;
64011;SDS011;50211;52.768;12.124;2023-07-30T07:09:02;3.55;;;2.20;;
64011;SDS011;50211;52.768;12.124;2023-07-30T07:11:28;4.03;;;2.08;;
64011;SDS011;50211;52.768;12.124;2023-07-30T07:13:53;4.32;;;1.80;;
64011;SDS011;50211;52.768;12.124;2023-07-30T07:16:18;3.88;;;1.92;;
64011;SDS011;50211;52.768;12.124;2023-07-30T07:18:44;6.28;;;1.90;;
64011;SDS011;50211;52.768;12.124;2023-07-30T07:21:10;4.07;;;2.05;;
64011;SDS011;50211;52.768;12.124;2023-07-30T07:23:36;3.88;;;2.35;;
64011;SDS011;50211;52.768;12.124;2023-07-30T07:26:01;5.60;;;2.25;;
64011;SDS011;50211;52.768;12.124;2023-07-30T07:28:27;3.55;;;1.90;;
64011;SDS011;50211;52.768;12.124;2023-07-30T07:30:52;5.25;;;2.13;;
64011;SDS011;50211;52.768;12.124;2023-07-30T07:33:19;5.00;;;2.30;;
64011;SDS011;50211;52.768;12.124;2023-07-30T07:35:44;2.65;;;2.00;;
64011;SDS011;50211;52.768;12.124;2023-07-30T07:38:10;5.20;;;2.38;;
64011;SDS011;50211;52.768;12.124;2023-07-30T07:40:39;4.00;;;2.03;;
64011;SDS011;50211;52.768;12.124;2023-07-30T07:43:05;6.43;;;3.15;;
64011;SDS011;50211;52.768;12.124;2023-07-30T07:45:31;3.63;;;2.00;;
64011;SDS011;50211;52.768;12.124;2023-07-30T07:47:57;4.80;;;2.65;;
64011;SDS011;50211;52.768;12.124;2023-07-30T07:50:22;3.42;;;2.78;;
64011;SDS011;50211;52.768;12.124;2023-07-30T07:52:48;4.60;;;2.80;;
64011;SDS011;50211;52.768;12.124;2023-07-30T07:55:13;5.15;;;2.42;;
64011;SDS011;50211;52.768;12.124;2023-07-30T07:57:39;3.58;;;2.70;;
64011;SDS011;50211;52.768;12.124;2023-07-30T08:00:05;4.18;;;2.78;;
64011;SDS011;50211;52.768;12.124;2023-07-30T08:02:31;5.07;;;2.80;;
64011;SDS011;50211;52.768;12.124;2023-07-30T08:04:57;4.72;;;2.72;;
64011;SDS011;50211;52.768;12.124;2023-07-30T08:07:22;6.30;;;2.75;;
64011;SDS011;50211;52.768;12.124;2023-07-30T08:09:48;4.85;;;2.30;;
64011;SDS011;50211;52.768;12.124;2023-07-30T08:12:14;3.05;;;2.25;;
64011;SDS011;50211;52.768;12.124;2023-07-30T08:14:39;6.47;;;2.35;;
64011;SDS011;50211;52.768;12.124;2023-07-30T08:17:05;5.80;;;2.58;;
64011;SDS011;50211;52.768;12.124;2023-07-30T08:19:30;3.55;;;2.15;;
64011;SDS011;50211;52.768;12.124;2023-07-30T08:21:57;5.88;;;2.72;;
64011;SDS011;50211;52.768;12.124;2023-07-30T08:24:23;5.15;;;2.08;;
64011;SDS011;50211;52.768;12.124;2023-07-30T08:26:49;5.45;;;2.22;;
64011;SDS011;50211;52.768;12.124;2023-07-30T08:29:15;5.38;;;2.50;;
64011;SDS011;50211;52.768;12.124;2023-07-30T08:31:40;8.02;;;2.42;;
64011;SDS011;50211;52.768;12.124;2023-07-30T08:34:06;5.03;;;1.92;;
64011;SDS011;50211;52.768;12.124;2023-07-30T08:36:32;5.97;;;2.50;;
64011;SDS011;50211;52.768;12.124;2023-07-30T08:38:57;5.15;;;2.05;;
64011;SDS011;50211;52.768;12.124;2023-07-30T08:41:23;6.10;;;1.90;;
64011;SDS011;50211;52.768;12.124;2023-07-30T08:43:49;7.40;;;2.35;;
64011;SDS011;50211;52.768;12.124;2023-07-30T08:46:16;9.50;;;2.38;;
64011;SDS011;50211;52.768;12.124;2023-07-30T08:48:42;3.40;;;1.95;;
64011;SDS011;50211;52.768;12.124;2023-07-30T08:51:08;11.63;;;2.35;;
64011;SDS011;50211;52.768;12.124;2023-07-30T08:53:34;6.18;;;2.38;;
64011;SDS011;50211;52.768;12.124;2023-07-30T08:56:00;5.53;;;2.65;;
64011;SDS011;50211;52.768;12.124;2023-07-30T08:58:26;5.05;;;2.20;;
64011;SDS011;50211;52.768;12.124;2023-07-30T09:00:53;12.38;;;3.22;;
64011;SDS011;50211;52.768;12.124;2023-07-30T09:03:20;7.00;;;3.10;;
64011;SDS011;50211;52.768;12.124;2023-07-30T09:05:49;7.00;;;2.78;;
64011;SDS011;50211;52.768;12.124;2023-07-30T09:08:15;6.45;;;3.13;;
64011;SDS011;50211;52.768;12.124;2023-07-30T09:10:42;6.70;;;2.33;;
64011;SDS011;50211;52.768;12.124;2023-07-30T09:13:08;10.77;;;2.42;;
64011;SDS011;50211;52.768;12.124;2023-07-30T09:15:35;7.10;;;3.00;;
64011;SDS011;50211;52.768;12.124;2023-07-30T09:18:04;10.80;;;2.80;;
64011;SDS011;50211;52.768;12.124;2023-07-30T09:20:37;8.15;;;2.97;;
64011;SDS011;50211;52.768;12.124;2023-07-30T09:23:04;7.70;;;2.40;;
64011;SDS011;50211;52.768;12.124;2023-07-30T09:25:31;6.68;;;2.10;;
64011;SDS011;50211;52.768;12.124;2023-07-30T09:27:56;8.60;;;2.22;;
64011;SDS011;50211;52.768;12.124;2023-07-30T09:30:22;12.18;;;2.50;;
64011;SDS011;50211;52.768;12.124;2023-07-30T09:32:52;6.75;;;1.98;;
64011;SDS011;50211;52.768;12.124;2023-07-30T09:35:19;12.10;;;2.97;;
64011;SDS011;50211;52.768;12.124;2023-07-30T09:37:45;11.30;;;2.45;;
64011;SDS011;50211;52.768;12.124;2023-07-30T09:40:12;4.57;;;2.28;;
64011;SDS011;50211;52.768;12.124;2023-07-30T09:42:38;7.43;;;2.67;;
64011;SDS011;50211;52.768;12.124;2023-07-30T09:45:08;6.93;;;2.10;;
64011;SDS011;50211;52.768;12.124;2023-07-30T09:47:45;7.22;;;2.25;;
64011;SDS011;50211;52.768;12.124;2023-07-30T09:50:11;4.40;;;2.00;;
64011;SDS011;50211;52.768;12.124;2023-07-30T09:52:37;4.22;;;1.90;;
64011;SDS011;50211;52.768;12.124;2023-07-30T09:55:05;6.45;;;1.80;;
64011;SDS011;50211;52.768;12.124;2023-07-30T09:57:32;4.47;;;1.98;;
64011;SDS011;50211;52.768;12.124;2023-07-30T09:59:58;8.07;;;2.20;;
64011;SDS011;50211;52.768;12.124;2023-07-30T10:02:24;4.82;;;2.05;;
64011;SDS011;50211;52.768;12.124;2023-07-30T10:04:50;5.70;;;2.13;;
64011;SDS011;50211;52.768;12.124;2023-07-30T10:07:19;6.07;;;2.05;;
64011;SDS011;50211;52.768;12.124;2023-07-30T10:09:47;4.97;;;2.05;;
64011;SDS011;50211;52.768;12.124;2023-07-30T10:12:16;7.63;;;2.00;;
64011;SDS011;50211;52.768;12.124;2023-07-30T10:14:43;7.88;;;2.33;;
64011;SDS011;50211;52.768;12.124;2023-07-30T10:17:10;9.60;;;2.35;;
64011;SDS011;50211;52.768;12.124;2023-07-30T10:19:36;12.75;;;2.17;;
64011;SDS011;50211;52.768;12.124;2023-07-30T10:24:39;6.63;;;2.00;;
64011;SDS011;50211;52.768;12.124;2023-07-30T10:27:05;7.63;;;1.80;;
64011;SDS011;50211;52.768;12.124;2023-07-30T10:29:35;4.18;;;2.22;;
64011;SDS011;50211;52.768;12.124;2023-07-30T10:32:01;6.75;;;2.50;;
64011;SDS011;50211;52.768;12.124;2023-07-30T10:34:43;4.85;;;2.05;;
64011;SDS011;50211;52.768;12.124;2023-07-30T10:37:09;5.10;;;2.20;;
64011;SDS011;50211;52.768;12.124;2023-07-30T10:39:34;6.32;;;2.03;;
64011;SDS011;50211;52.768;12.124;2023-07-30T10:42:00;4.03;;;1.95;;
64011;SDS011;50211;52.768;12.124;2023-07-30T10:44:32;7.85;;;2.10;;
64011;SDS011;50211;52.768;12.124;2023-07-30T10:47:00;4.85;;;1.73;;
64011;SDS011;50211;52.768;12.124;2023-07-30T10:49:26;7.63;;;1.70;;
64011;SDS011;50211;52.768;12.124;2023-07-30T10:51:52;4.50;;;1.85;;
64011;SDS011;50211;52.768;12.124;2023-07-30T10:54:19;6.22;;;1.98;;
64011;SDS011;50211;52.768;12.124;2023-07-30T10:56:45;5.78;;;2.17;;
64011;SDS011;50211;52.768;12.124;2023-07-30T10:59:11;2.53;;;2.00;;
64011;SDS011;50211;52.768;12.124;2023-07-30T11:01:38;4.80;;;2.13;;
64011;SDS011;50211;52.768;12.124;2023-07-30T11:04:12;4.18;;;2.53;;
64011;SDS011;50211;52.768;12.124;2023-07-30T11:06:45;3.83;;;2.53;;
64011;SDS011;50211;52.768;12.124;2023-07-30T11:11:48;4.63;;;2.20;;
64011;SDS011;50211;52.768;12.124;2023-07-30T11:14:15;3.38;;;1.88;;
64011;SDS011;50211;52.768;12.124;2023-07-30T11:16:47;3.70;;;2.08;;
64011;SDS011;50211;52.768;12.124;2023-07-30T11:19:16;4.40;;;1.75;;
64011;SDS011;50211;52.768;12.124;2023-07-30T11:21:49;5.47;;;2.10;;
64011;SDS011;50211;52.768;12.124;2023-07-30T11:24:17;5.78;;;2.08;;
64011;SDS011;50211;52.768;12.124;2023-07-30T11:26:43;6.13;;;1.65;;
64011;SDS011;50211;52.768;12.124;2023-07-30T11:29:15;4.15;;;1.60;;
64011;SDS011;50211;52.768;12.124;2023-07-30T11:31:45;3.42;;;1.83;;
64011;SDS011;50211;52.768;12.124;2023-07-30T11:34:12;4.22;;;2.00;;
64011;SDS011;50211;52.768;12.124;2023-07-30T11:36:39;5.28;;;2.40;;
64011;SDS011;50211;52.768;12.124;2023-07-30T11:39:06;4.82;;;2.30;;
64011;SDS011;50211;52.768;12.124;2023-07-30T11:41:32;8.45;;;2.92;;
64011;SDS011;50211;52.768;12.124;2023-07-30T11:43:58;4.68;;;2.33;;
64011;SDS011;50211;52.768;12.124;2023-07-30T11:46:24;10.90;;;2.85;;
64011;SDS011;50211;52.768;12.124;2023-07-30T11:48:50;4.85;;;2.25;;
64011;SDS011;50211;52.768;12.124;2023-07-30T11:51:27;6.07;;;2.50;;
64011;SDS011;50211;52.768;12.124;2023-07-30T11:53:57;5.10;;;2.33;;
64011;SDS011;50211;52.768;12.124;2023-07-30T11:56:25;4.35;;;2.28;;
64011;SDS011;50211;52.768;12.124;2023-07-30T11:59:10;3.80;;;1.80;;
64011;SDS011;50211;52.768;12.124;2023-07-30T12:01:36;4.70;;;2.00;;
64011;SDS011;50211;52.768;12.124;2023-07-30T12:04:02;2.15;;;1.70;;
64011;SDS011;50211;52.768;12.124;2023-07-30T12:06:38;3.83;;;1.63;;
64011;SDS011;50211;52.768;12.124;2023-07-30T12:09:10;4.55;;;1.67;;
64011;SDS011;50211;52.768;12.124;2023-07-30T12:11:49;3.35;;;1.40;;
64011;SDS011;50211;52.768;12.124;2023-07-30T12:14:17;2.25;;;1.52;;
64011;SDS011;50211;52.768;12.124;2023-07-30T12:16:43;5.80;;;1.48;;
64011;SDS011;50211;52.768;12.124;2023-07-30T12:19:09;2.85;;;1.60;;
64011;SDS011;50211;52.768;12.124;2023-07-30T12:21:34;2.75;;;1.40;;
64011;SDS011;50211;52.768;12.124;2023-07-30T12:24:01;3.08;;;1.17;;
64011;SDS011;50211;52.768;12.124;2023-07-30T12:26:26;12.13;;;1.80;;
64011;SDS011;50211;52.768;12.124;2023-07-30T12:28:52;2.72;;;1.55;;
64011;SDS011;50211;52.768;12.124;2023-07-30T12:31:17;2.63;;;1.38;;
64011;SDS011;50211;52.768;12.124;2023-07-30T12:33:43;1.80;;;1.05;;
64011;SDS011;50211;52.768;12.124;2023-07-30T12:36:08;2.92;;;1.40;;
64011;SDS011;50211;52.768;12.124;2023-07-30T12:38:34;6.55;;;1.50;;
64011;SDS011;50211;52.768;12.124;2023-07-30T12:40:59;4.05;;;1.35;;
64011;SDS011;50211;52.768;12.124;2023-07-30T12:43:25;5.78;;;1.42;;
64011;SDS011;50211;52.768;12.124;2023-07-30T12:45:50;3.95;;;1.40;;
64011;SDS011;50211;52.768;12.124;2023-07-30T12:48:16;2.00;;;1.10;;
64011;SDS011;50211;52.768;12.124;2023-07-30T12:50:41;3.83;;;1.65;;
64011;SDS011;50211;52.768;12.124;2023-07-30T12:53:07;1.95;;;1.25;;
64011;SDS011;50211;52.768;12.124;2023-07-30T12:55:33;2.53;;;1.10;;
64011;SDS011;50211;52.768;12.124;2023-07-30T12:57:58;4.05;;;1.17;;
64011;SDS011;50211;52.768;12.124;2023-07-30T13:00:24;3.15;;;1.25;;
64011;SDS011;50211;52.768;12.124;2023-07-30T13:02:50;4.07;;;1.25;;
64011;SDS011;50211;52.768;12.124;2023-07-30T13:05:20;1.50;;;1.10;;
64011;SDS011;50211;52.768;12.124;2023-07-30T13:07:46;2.17;;;1.40;;
64011;SDS011;50211;52.768;12.124;2023-07-30T13:10:11;2.25;;;1.38;;
64011;SDS011;50211;52.768;12.124;2023-07-30T13:12:37;2.33;;;1.60;;
64011;SDS011;50211;52.768;12.124;2023-07-30T13:15:03;2.20;;;1.73;;
64011;SDS011;50211;52.768;12.124;2023-07-30T13:17:29;1.95;;;1.45;;
64011;SDS011;50211;52.768;12.124;2023-07-30T13:19:54;4.15;;;1.67;;
64011;SDS011;50211;52.768;12.124;2023-07-30T13:22:20;4.55;;;1.63;;
64011;SDS011;50211;52.768;12.124;2023-07-30T13:24:45;4.53;;;1.85;;
64011;SDS011;50211;52.768;12.124;2023-07-30T13:27:11;6.75;;;1.60;;
64011;SDS011;50211;52.768;12.124;2023-07-30T13:29:36;3.33;;;1.50;;
64011;SDS011;50211;52.768;12.124;2023-07-30T13:32:02;5.22;;;2.00;;
64011;SDS011;50211;52.768;12.124;2023-07-30T13:34:28;5.65;;;1.40;;
64011;SDS011;50211;52.768;12.124;2023-07-30T13:36:53;5.03;;;1.98;;
64011;SDS011;50211;52.768;12.124;2023-07-30T13:39:19;2.95;;;1.70;;
64011;SDS011;50211;52.768;12.124;2023-07-30T13:41:44;4.47;;;1.65;;
64011;SDS011;50211;52.768;12.124;2023-07-30T13:44:10;6.03;;;1.88;;
64011;SDS011;50211;52.768;12.124;2023-07-30T13:46:36;3.55;;;1.58;;
64011;SDS011;50211;52.768;12.124;2023-07-30T13:49:02;3.67;;;1.73;;
64011;SDS011;50211;52.768;12.124;2023-07-30T13:51:28;3.25;;;1.40;;
64011;SDS011;50211;52.768;12.124;2023-07-30T13:53:57;6.05;;;1.63;;
64011;SDS011;50211;52.768;12.124;2023-07-30T13:56:27;4.18;;;1.45;;
64011;SDS011;50211;52.768;12.124;2023-07-30T13:58:53;3.50;;;1.45;;
64011;SDS011;50211;52.768;12.124;2023-07-30T14:01:19;2.08;;;1.05;;
64011;SDS011;50211;52.768;12.124;2023-07-30T14:03:44;6.30;;;1.50;;
64011;SDS011;50211;52.768;12.124;2023-07-30T14:06:10;3.15;;;1.40;;
64011;SDS011;50211;52.768;12.124;2023-07-30T14:08:36;2.30;;;1.30;;
64011;SDS011;50211;52.768;12.124;2023-07-30T14:11:01;6.70;;;1.63;;
64011;SDS011;50211;52.768;12.124;2023-07-30T14:13:27;3.10;;;1.50;;
64011;SDS011;50211;52.768;12.124;2023-07-30T14:15:52;2.92;;;1.30;;
64011;SDS011;50211;52.768;12.124;2023-07-30T14:18:18;7.20;;;1.70;;
64011;SDS011;50211;52.768;12.124;2023-07-30T14:20:43;5.88;;;1.88;;
64011;SDS011;50211;52.768;12.124;2023-07-30T14:23:09;2.35;;;1.40;;
64011;SDS011;50211;52.768;12.124;2023-07-30T14:25:36;1.75;;;1.40;;
64011;SDS011;50211;52.768;12.124;2023-07-30T14:28:02;8.75;;;1.95;;
64011;SDS011;50211;52.768;12.124;2023-07-30T14:30:27;3.03;;;1.42;;
64011;SDS011;50211;52.768;12.124;2023-07-30T14:32:53;11.75;;;1.80;;